If you wish to contribute or participate in the discussions about articles you are invited to join SKYbrary as a registered user

 Actions

Bauru Airport

From SKYbrary Wiki

SBBU
Airport
ICAO: SBBU – IATA: BAU
Summary
Name Bauru Airport
Region South America and Caribbean
Territory Brazil BR.gif
Location Bauru, Sao Paulo
Serving Bauru
Elevation 617.22 m
2,025 ft617.22 m
Coordinates 22° 20' 37.00" S, 49° 3' 14.00" W
Runways
Designator Length Width Surface ROPS
14/32 1501 m4,924.541 ft
35 m114.829 ft
ASP /


METAR
Observation SBBU 111000Z 14006KT CAVOK 18/18 Q1018
Station Bauru
Date/Time 11 April 2019 10:00:00
Wind direction 140°
Wind speed 06 kts
Lowest cloud amount clouds and visibility OK
Temperature 18°C
Dew point 18°C
Humidity 100%
QNH 1018 hPa
Weather condition n/a

Comte. João Ribeiro de Barros Airport is an airport serving Bauru, Brazil.

Climatology

Humid subtropical climate (Köppen climate classification Cwa)

Maps

Terrain

Loading map...

Airport Layout

Loading map...


Accidents & Serious Incidents at or in vicinity of SBBU

None on SKYbrary